createdAt,value
2023-01-18T00:01:22.607Z,91.39
2023-01-18T00:03:51.016Z,91.41
2023-01-18T00:06:19.608Z,91.20
2023-01-18T00:08:48.005Z,91.38
2023-01-18T00:11:18.484Z,91.32
2023-01-18T00:13:48.234Z,91.41
2023-01-18T00:16:20.072Z,91.38
2023-01-18T00:18:53.749Z,91.20
2023-01-18T00:21:23.207Z,91.39
2023-01-18T00:23:51.541Z,91.27
2023-01-18T00:26:19.983Z,91.34
2023-01-18T00:28:48.329Z,91.46
2023-01-18T00:31:21.449Z,91.31
2023-01-18T00:33:50.647Z,91.58
2023-01-18T00:36:19.799Z,91.73
2023-01-18T00:38:52.171Z,91.60
2023-01-18T00:41:21.888Z,91.68
2023-01-18T00:43:51.646Z,91.86
2023-01-18T00:46:27.563Z,91.65
2023-01-18T00:48:57.335Z,91.68
2023-01-18T00:51:25.991Z,91.79
2023-01-18T00:53:54.307Z,91.76
2023-01-18T00:56:23.268Z,91.73
2023-01-18T00:58:51.738Z,91.95
2023-01-18T01:01:20.237Z,91.85
2023-01-18T01:04:07.709Z,91.77
2023-01-18T01:06:46.097Z,91.89
2023-01-18T01:09:25.015Z,91.77
2023-01-18T01:12:12.854Z,91.88
2023-01-18T01:15:04.639Z,91.98
2023-01-18T01:17:55.814Z,91.92
2023-01-18T01:20:44.424Z,91.79
2023-01-18T01:23:41.180Z,91.74
2023-01-18T01:26:11.728Z,91.81
2023-01-18T01:28:44.172Z,91.50
2023-01-18T01:31:15.545Z,91.74
2023-01-18T01:33:46.126Z,91.81
2023-01-18T01:36:18.526Z,91.72
2023-01-18T01:38:47.386Z,91.70
2023-01-18T01:41:29.709Z,91.93
2023-01-18T01:44:24.505Z,91.86
2023-01-18T01:46:58.638Z,91.77
2023-01-18T01:49:46.234Z,91.78
2023-01-18T01:52:22.560Z,91.73
2023-01-18T01:54:59.699Z,91.67
2023-01-18T01:57:55.856Z,91.75
2023-01-18T02:00:24.643Z,91.67
2023-01-18T02:03:03.539Z,91.89
2023-01-18T02:05:35.568Z,91.67
2023-01-18T02:08:04.350Z,91.65
2023-01-18T02:10:32.780Z,91.47
2023-01-18T02:13:01.553Z,91.80
2023-01-18T02:16:09.855Z,91.92
2023-01-18T02:19:13.605Z,91.85
2023-01-18T02:21:57.250Z,91.85
2023-01-18T02:24:44.078Z,91.79
2023-01-18T02:27:24.688Z,91.97
2023-01-18T02:30:32.480Z,92.05
2023-01-18T02:33:12.372Z,91.85
2023-01-18T02:35:57.823Z,91.97
2023-01-18T02:38:36.790Z,92.20
2023-01-18T02:41:52.150Z,92.14
2023-01-18T02:44:48.971Z,92.29
2023-01-18T02:47:17.864Z,92.27
2023-01-18T02:49:46.240Z,92.52
2023-01-18T02:52:47.606Z,92.28
2023-01-18T02:55:31.080Z,92.36
2023-01-18T02:58:09.710Z,92.54
2023-01-18T03:00:44.400Z,92.55
2023-01-18T03:03:13.722Z,92.69
2023-01-18T03:05:44.770Z,92.73
2023-01-18T03:08:51.307Z,92.57
2023-01-18T03:11:58.910Z,92.65
2023-01-18T03:14:40.886Z,92.54
2023-01-18T03:17:25.397Z,92.48
2023-01-18T03:20:07.939Z,92.26
2023-01-18T03:22:56.427Z,92.46
2023-01-18T03:25:37.849Z,92.49
2023-01-18T03:28:30.294Z,92.70
2023-01-18T03:31:22.285Z,92.72
2023-01-18T03:33:59.204Z,92.79
2023-01-18T03:36:33.100Z,92.86
2023-01-18T03:39:10.610Z,92.81
2023-01-18T03:41:48.866Z,92.97
2023-01-18T03:44:35.752Z,93.10
2023-01-18T03:47:06.156Z,93.21
2023-01-18T03:49:35.206Z,92.97
2023-01-18T03:52:37.664Z,93.23
2023-01-18T03:55:17.060Z,93.35
2023-01-18T03:57:54.060Z,93.40
2023-01-18T04:00:22.469Z,93.56
2023-01-18T04:02:50.910Z,93.63
2023-01-18T04:05:19.703Z,93.64
2023-01-18T04:07:48.432Z,93.92
2023-01-18T04:10:17.087Z,93.84
2023-01-18T04:12:45.485Z,93.81
2023-01-18T04:15:13.894Z,93.92
2023-01-18T04:17:42.215Z,93.93
2023-01-18T04:20:11.202Z,94.02
2023-01-18T04:22:39.490Z,93.99
2023-01-18T04:25:08.363Z,94.10
2023-01-18T04:27:36.696Z,94.24
2023-01-18T04:30:06.358Z,94.23
2023-01-18T04:32:34.746Z,94.18
2023-01-18T04:35:03.436Z,94.23
2023-01-18T04:37:34.643Z,94.36
2023-01-18T04:40:03.031Z,94.41
2023-01-18T04:42:31.408Z,94.41
2023-01-18T04:45:00.173Z,94.57
2023-01-18T04:47:29.157Z,94.54
2023-01-18T04:49:57.957Z,94.80
2023-01-18T04:52:26.923Z,94.92
2023-01-18T04:54:55.383Z,94.86
2023-01-18T04:57:23.815Z,94.68
2023-01-18T04:59:52.152Z,94.77
2023-01-18T05:02:20.602Z,94.92
2023-01-18T05:04:49.039Z,94.75
2023-01-18T05:07:17.447Z,95.01
2023-01-18T05:09:45.759Z,94.91
2023-01-18T05:12:14.052Z,95.25
2023-01-18T05:14:42.446Z,95.07
2023-01-18T05:17:10.912Z,94.94
2023-01-18T05:19:40.493Z,95.11
2023-01-18T05:22:08.919Z,95.14
2023-01-18T05:24:37.211Z,95.15
2023-01-18T05:27:06.052Z,95.10
2023-01-18T05:29:34.624Z,95.28
2023-01-18T05:32:03.006Z,95.06
2023-01-18T05:34:31.404Z,95.07
2023-01-18T05:36:59.968Z,95.11
2023-01-18T05:39:28.483Z,95.48
2023-01-18T05:41:58.761Z,95.38
2023-01-18T05:44:28.423Z,95.43
2023-01-18T05:46:57.699Z,95.50
2023-01-18T05:49:26.419Z,95.46
2023-01-18T05:51:55.352Z,95.71
2023-01-18T05:54:23.816Z,95.51
2023-01-18T05:56:52.176Z,95.78
2023-01-18T05:59:20.540Z,96.02
2023-01-18T06:01:48.934Z,95.98
2023-01-18T06:04:17.567Z,95.88
2023-01-18T06:06:46.256Z,96.21
2023-01-18T06:09:14.718Z,96.29
2023-01-18T06:11:43.075Z,96.58
2023-01-18T06:14:11.689Z,96.60
2023-01-18T06:16:40.171Z,96.74
2023-01-18T06:19:08.789Z,97.14
2023-01-18T06:21:37.337Z,97.01
2023-01-18T06:24:06.210Z,97.12
2023-01-18T06:26:34.760Z,97.06
2023-01-18T06:29:03.385Z,97.14
2023-01-18T06:31:31.780Z,97.15
2023-01-18T06:34:00.115Z,97.28
2023-01-18T06:36:29.839Z,97.44
2023-01-18T06:38:58.193Z,97.37
2023-01-18T06:41:26.525Z,97.39
2023-01-18T06:43:55.210Z,97.54
2023-01-18T06:46:23.526Z,97.69
2023-01-18T06:48:51.893Z,97.66
2023-01-18T06:51:22.032Z,97.69
2023-01-18T06:53:50.378Z,97.83
2023-01-18T06:56:18.674Z,97.82
2023-01-18T06:58:47.036Z,97.70
2023-01-18T07:01:15.546Z,97.77
2023-01-18T07:03:43.938Z,97.93
2023-01-18T07:06:12.515Z,98.31
2023-01-18T07:08:42.159Z,98.38
2023-01-18T07:11:13.041Z,98.25
2023-01-18T07:13:43.830Z,98.29
2023-01-18T07:16:17.572Z,98.48
2023-01-18T07:18:48.283Z,98.43
2023-01-18T07:21:18.152Z,98.60
2023-01-18T07:23:46.425Z,98.54
2023-01-18T07:26:17.126Z,98.77
2023-01-18T07:28:46.808Z,98.79
2023-01-18T07:31:16.947Z,98.70
2023-01-18T07:33:45.631Z,98.68
2023-01-18T07:36:14.101Z,98.93
2023-01-18T07:38:42.939Z,98.82
2023-01-18T07:41:14.402Z,99.01
2023-01-18T07:43:44.925Z,98.94
2023-01-18T07:46:20.623Z,99.06
2023-01-18T07:48:49.272Z,98.89
2023-01-18T07:51:17.576Z,99.35
2023-01-18T07:53:45.997Z,99.39
2023-01-18T07:56:17.481Z,99.38
2023-01-18T07:58:46.479Z,99.35
2023-01-18T08:01:18.361Z,99.32
2023-01-18T08:03:48.835Z,99.47
2023-01-18T08:06:26.629Z,99.68
2023-01-18T08:08:57.046Z,99.51
2023-01-18T08:11:25.814Z,99.64
2023-01-18T08:13:54.193Z,99.68
2023-01-18T08:16:22.730Z,99.91
2023-01-18T08:18:51.451Z,99.75
2023-01-18T08:21:19.882Z,99.81
2023-01-18T08:23:48.316Z,99.91
2023-01-18T08:26:16.691Z,99.76
2023-01-18T08:28:45.192Z,99.86
2023-01-18T08:31:19.128Z,99.87
2023-01-18T08:33:49.028Z,99.61
2023-01-18T08:36:21.788Z,99.52
2023-01-18T08:38:57.231Z,99.60
2023-01-18T08:41:28.940Z,99.56
2023-01-18T08:43:59.579Z,99.34
2023-01-18T08:46:28.628Z,99.42
2023-01-18T08:48:59.325Z,99.67
2023-01-18T08:51:27.968Z,99.48
2023-01-18T08:53:57.271Z,99.55
2023-01-18T08:56:27.077Z,99.53
2023-01-18T08:58:56.024Z,99.66
2023-01-18T09:01:24.832Z,99.43
2023-01-18T09:03:58.480Z,99.29
2023-01-18T09:06:32.035Z,99.41
2023-01-18T09:09:01.696Z,99.14
2023-01-18T09:11:30.165Z,98.94
2023-01-18T09:14:01.582Z,99.09
2023-01-18T09:16:31.771Z,98.82
2023-01-18T09:19:01.307Z,98.74
2023-01-18T09:21:29.810Z,98.89
2023-01-18T09:23:59.511Z,98.75
2023-01-18T09:26:30.325Z,98.73
2023-01-18T09:28:58.798Z,98.68
2023-01-18T09:31:28.263Z,98.55
2023-01-18T09:34:09.583Z,98.77
2023-01-18T09:36:46.173Z,98.48
2023-01-18T09:39:14.482Z,98.51
2023-01-18T09:41:49.612Z,98.34
2023-01-18T09:44:32.427Z,98.43
2023-01-18T09:47:25.870Z,98.65
2023-01-18T09:50:00.059Z,98.75
2023-01-18T09:53:12.473Z,98.51
2023-01-18T09:55:51.795Z,98.35
2023-01-18T09:58:43.797Z,97.99
2023-01-18T10:01:19.986Z,98.28
2023-01-18T10:04:18.892Z,98.41
2023-01-18T10:07:05.297Z,98.88
2023-01-18T10:09:40.510Z,98.95
2023-01-18T10:12:33.748Z,98.85
2023-01-18T10:15:17.426Z,98.57
2023-01-18T10:17:47.331Z,98.32
2023-01-18T10:20:24.649Z,97.97
2023-01-18T10:23:01.100Z,97.93
2023-01-18T10:25:39.211Z,98.12
2023-01-18T10:28:25.287Z,98.13
2023-01-18T10:31:37.192Z,98.33
2023-01-18T10:34:18.268Z,98.12
2023-01-18T10:36:56.426Z,98.00
2023-01-18T10:39:34.695Z,98.13
2023-01-18T10:42:13.393Z,98.49
2023-01-18T10:44:41.723Z,98.27
2023-01-18T10:47:12.038Z,98.29
2023-01-18T10:49:43.935Z,98.12
2023-01-18T10:52:29.749Z,98.14
2023-01-18T10:55:01.724Z,97.84
2023-01-18T10:57:36.995Z,97.89
2023-01-18T11:00:12.449Z,97.93
2023-01-18T11:02:45.216Z,98.12
2023-01-18T11:05:27.658Z,98.32
2023-01-18T11:08:25.385Z,98.48
2023-01-18T11:11:48.474Z,98.60
2023-01-18T11:14:30.689Z,98.64
2023-01-18T11:17:11.465Z,98.85
2023-01-18T11:19:41.768Z,98.84
2023-01-18T11:22:16.972Z,99.16
2023-01-18T11:24:45.860Z,99.35
2023-01-18T11:27:23.166Z,99.60
2023-01-18T11:29:51.960Z,99.76
2023-01-18T11:32:28.145Z,99.99
2023-01-18T11:35:00.078Z,100.00
2023-01-18T11:37:37.636Z,99.97
2023-01-18T11:40:29.443Z,100.00
2023-01-18T11:43:24.954Z,99.92
2023-01-18T11:46:05.963Z,99.92
2023-01-18T11:49:11.572Z,99.98
2023-01-18T11:51:51.557Z,99.99
2023-01-18T11:54:38.548Z,99.99
2023-01-18T11:57:10.307Z,100.00
2023-01-18T11:59:45.703Z,100.00
2023-01-18T12:02:32.667Z,100.00
2023-01-18T12:05:52.952Z,100.00
2023-01-18T12:09:05.965Z,100.00
2023-01-18T12:12:18.524Z,99.99
2023-01-18T12:15:29.197Z,100.00
2023-01-18T12:18:42.354Z,99.99
2023-01-18T12:21:22.328Z,100.00
2023-01-18T12:24:13.038Z,100.00
2023-01-18T12:27:05.579Z,99.83
2023-01-18T12:29:58.222Z,99.72
2023-01-18T12:32:50.534Z,99.91
2023-01-18T12:35:38.575Z,99.95
2023-01-18T12:38:24.304Z,100.00
2023-01-18T12:41:18.211Z,99.90
2023-01-18T12:44:25.497Z,99.97
2023-01-18T12:47:35.118Z,100.00
2023-01-18T12:50:16.599Z,99.97
2023-01-18T12:52:53.566Z,99.95
2023-01-18T12:55:25.662Z,99.83
2023-01-18T12:57:59.975Z,99.87
2023-01-18T13:00:35.393Z,99.82
2023-01-18T13:03:11.906Z,99.90
2023-01-18T13:05:57.980Z,99.97
2023-01-18T13:08:53.750Z,99.99
2023-01-18T13:11:30.776Z,100.00
2023-01-18T13:14:17.465Z,100.00
2023-01-18T13:17:05.425Z,99.99
2023-01-18T13:19:44.464Z,100.00
2023-01-18T13:22:35.751Z,99.97
2023-01-18T13:25:42.044Z,99.99
2023-01-18T13:28:18.293Z,100.00
2023-01-18T13:31:02.003Z,100.00
2023-01-18T13:33:45.522Z,100.00
2023-01-18T13:36:19.402Z,100.00
2023-01-18T13:38:58.292Z,100.00
2023-01-18T13:41:31.135Z,100.00
2023-01-18T13:44:01.502Z,100.00
2023-01-18T13:46:35.360Z,100.00
2023-01-18T13:49:38.697Z,100.00
2023-01-18T13:52:33.940Z,100.00
2023-01-18T13:55:24.931Z,100.00
2023-01-18T13:57:55.519Z,100.00
2023-01-18T14:00:26.065Z,100.00
2023-01-18T14:03:15.541Z,100.00
2023-01-18T14:05:46.615Z,100.00
2023-01-18T14:08:30.699Z,100.00
2023-01-18T14:11:11.061Z,100.00
2023-01-18T14:13:45.328Z,100.00
2023-01-18T14:16:26.012Z,100.00
2023-01-18T14:19:02.088Z,100.00
2023-01-18T14:21:52.260Z,100.00
2023-01-18T14:24:47.595Z,100.00
2023-01-18T14:27:25.038Z,100.00
2023-01-18T14:30:16.806Z,100.00
2023-01-18T14:32:59.134Z,100.00
2023-01-18T14:35:27.776Z,100.00
2023-01-18T14:38:18.849Z,100.00
2023-01-18T14:40:51.410Z,100.00
2023-01-18T14:43:30.777Z,100.00
2023-01-18T14:46:21.424Z,100.00
2023-01-18T14:48:55.683Z,100.00
2023-01-18T14:51:28.149Z,100.00
2023-01-18T14:54:02.081Z,100.00
2023-01-18T14:56:39.910Z,100.00
2023-01-18T14:59:33.328Z,100.00
2023-01-18T15:02:20.419Z,100.00
2023-01-18T15:04:49.573Z,100.00
2023-01-18T15:07:33.962Z,100.00
2023-01-18T15:10:03.562Z,100.00
2023-01-18T15:12:32.976Z,100.00
2023-01-18T15:15:43.400Z,100.00
2023-01-18T15:18:19.537Z,100.00
2023-01-18T15:21:04.976Z,100.00
2023-01-18T15:23:36.649Z,100.00
2023-01-18T15:26:06.247Z,100.00
2023-01-18T15:28:35.128Z,100.00
2023-01-18T15:31:15.115Z,100.00
2023-01-18T15:33:44.918Z,100.00
2023-01-18T15:36:14.187Z,100.00
2023-01-18T15:38:42.862Z,100.00
2023-01-18T15:41:14.853Z,100.00
2023-01-18T15:43:46.082Z,100.00
2023-01-18T15:46:17.218Z,100.00
2023-01-18T15:48:56.417Z,100.00
2023-01-18T15:51:45.037Z,100.00
2023-01-18T15:54:19.674Z,100.00
2023-01-18T15:56:48.730Z,100.00
2023-01-18T15:59:26.232Z,100.00
2023-01-18T16:02:15.929Z,100.00
2023-01-18T16:04:45.526Z,100.00
2023-01-18T16:07:43.447Z,100.00
2023-01-18T16:10:17.827Z,100.00
2023-01-18T16:12:47.012Z,100.00
2023-01-18T16:15:30.632Z,100.00
2023-01-18T16:18:06.415Z,100.00
2023-01-18T16:20:36.083Z,100.00
2023-01-18T16:23:19.760Z,100.00
2023-01-18T16:25:53.342Z,100.00
2023-01-18T16:28:23.121Z,100.00
2023-01-18T16:30:53.616Z,100.00
2023-01-18T16:33:22.239Z,100.00
2023-01-18T16:35:50.966Z,100.00
2023-01-18T16:38:20.394Z,100.00
2023-01-18T16:40:51.079Z,100.00
2023-01-18T16:43:19.943Z,100.00
2023-01-18T16:45:51.428Z,100.00
2023-01-18T16:48:24.309Z,100.00
2023-01-18T16:50:55.878Z,100.00
2023-01-18T16:53:24.227Z,100.00
2023-01-18T16:56:18.535Z,100.00
2023-01-18T16:58:47.180Z,100.00
2023-01-18T17:01:16.399Z,100.00
2023-01-18T17:03:44.937Z,100.00
2023-01-18T17:06:22.562Z,100.00
2023-01-18T17:08:50.911Z,100.00
2023-01-18T17:11:19.243Z,100.00
2023-01-18T17:13:47.795Z,100.00
2023-01-18T17:16:19.092Z,100.00
2023-01-18T17:18:48.171Z,100.00
2023-01-18T17:21:16.515Z,100.00
2023-01-18T17:23:45.363Z,100.00
2023-01-18T17:26:17.732Z,100.00
2023-01-18T17:28:46.142Z,100.00
2023-01-18T17:31:14.504Z,100.00
2023-01-18T17:33:43.789Z,100.00
2023-01-18T17:36:12.151Z,100.00
2023-01-18T17:38:40.636Z,100.00
2023-01-18T17:41:27.774Z,100.00
2023-01-18T17:43:57.181Z,100.00
2023-01-18T17:46:25.708Z,100.00
2023-01-18T17:48:54.109Z,100.00
2023-01-18T17:51:22.744Z,100.00
2023-01-18T17:53:51.183Z,100.00
2023-01-18T17:56:19.547Z,100.00
2023-01-18T17:58:49.316Z,100.00
2023-01-18T18:01:19.021Z,100.00
2023-01-18T18:03:50.715Z,100.00
2023-01-18T18:06:30.048Z,100.00
2023-01-18T18:09:01.481Z,100.00
2023-01-18T18:11:29.952Z,100.00
2023-01-18T18:13:59.047Z,100.00
2023-01-18T18:16:27.815Z,100.00
2023-01-18T18:18:58.135Z,100.00
2023-01-18T18:21:27.255Z,100.00
2023-01-18T18:23:55.651Z,100.00
2023-01-18T18:26:24.011Z,100.00
2023-01-18T18:28:52.581Z,100.00
2023-01-18T18:31:21.623Z,100.00
2023-01-18T18:33:49.973Z,100.00
2023-01-18T18:36:18.284Z,100.00
2023-01-18T18:38:46.685Z,100.00
2023-01-18T18:41:15.025Z,100.00
2023-01-18T18:43:43.315Z,100.00
2023-01-18T18:46:11.706Z,100.00
2023-01-18T18:48:40.163Z,100.00
2023-01-18T18:51:08.566Z,100.00
2023-01-18T18:53:39.727Z,100.00
2023-01-18T18:56:11.849Z,100.00
2023-01-18T18:58:40.890Z,100.00
2023-01-18T19:01:26.361Z,100.00
2023-01-18T19:03:58.776Z,100.00
2023-01-18T19:06:27.903Z,100.00
2023-01-18T19:08:57.330Z,100.00
2023-01-18T19:11:25.827Z,100.00
2023-01-18T19:13:55.781Z,100.00
2023-01-18T19:16:24.287Z,100.00
2023-01-18T19:18:52.702Z,100.00
2023-01-18T19:21:20.980Z,100.00
2023-01-18T19:23:49.331Z,100.00
2023-01-18T19:26:18.347Z,100.00
2023-01-18T19:28:47.234Z,100.00
2023-01-18T19:31:15.746Z,100.00
2023-01-18T19:33:44.066Z,100.00
2023-01-18T19:36:15.927Z,100.00
2023-01-18T19:38:48.028Z,100.00
2023-01-18T19:41:19.059Z,100.00
2023-01-18T19:43:50.387Z,100.00
2023-01-18T19:46:20.215Z,100.00
2023-01-18T19:48:48.761Z,100.00
2023-01-18T19:51:22.384Z,100.00
2023-01-18T19:53:56.295Z,100.00
2023-01-18T19:56:25.709Z,100.00
2023-01-18T19:58:54.079Z,100.00
2023-01-18T20:01:35.272Z,100.00
2023-01-18T20:04:06.696Z,100.00
2023-01-18T20:06:38.374Z,100.00
2023-01-18T20:09:18.576Z,100.00
2023-01-18T20:11:49.170Z,100.00
2023-01-18T20:14:18.533Z,100.00
2023-01-18T20:16:48.004Z,100.00
2023-01-18T20:19:17.691Z,100.00
2023-01-18T20:21:46.469Z,100.00
2023-01-18T20:24:14.905Z,100.00
2023-01-18T20:26:43.767Z,100.00
2023-01-18T20:29:13.179Z,100.00
2023-01-18T20:31:44.586Z,100.00
2023-01-18T20:34:16.766Z,100.00
2023-01-18T20:36:46.100Z,100.00
2023-01-18T20:39:14.742Z,100.00
2023-01-18T20:41:43.660Z,100.00
2023-01-18T20:44:12.409Z,100.00
2023-01-18T20:46:40.723Z,100.00
2023-01-18T20:49:09.130Z,100.00
2023-01-18T20:51:40.289Z,100.00
2023-01-18T20:54:08.669Z,100.00
2023-01-18T20:56:37.052Z,100.00
2023-01-18T20:59:05.367Z,100.00
2023-01-18T21:01:34.066Z,100.00
2023-01-18T21:04:04.686Z,100.00
2023-01-18T21:06:33.645Z,100.00
2023-01-18T21:09:02.382Z,100.00
2023-01-18T21:11:32.288Z,100.00
2023-01-18T21:14:00.668Z,100.00
2023-01-18T21:16:29.055Z,100.00
2023-01-18T21:18:59.379Z,100.00
2023-01-18T21:21:29.355Z,100.00
2023-01-18T21:23:58.447Z,100.00
2023-01-18T21:26:27.892Z,100.00
2023-01-18T21:28:56.472Z,100.00
2023-01-18T21:31:25.137Z,100.00
2023-01-18T21:33:54.904Z,100.00
2023-01-18T21:36:23.306Z,100.00
2023-01-18T21:38:51.862Z,100.00
2023-01-18T21:41:39.163Z,100.00
2023-01-18T21:44:26.215Z,100.00
2023-01-18T21:46:54.615Z,100.00
2023-01-18T21:52:48.982Z,100.00
2023-01-18T21:55:18.625Z,100.00
2023-01-18T21:58:06.987Z,100.00
2023-01-18T22:00:40.067Z,100.00
2023-01-18T22:03:09.808Z,100.00
2023-01-18T22:05:40.927Z,100.00
2023-01-18T22:08:10.111Z,100.00
2023-01-18T22:10:38.616Z,100.00
2023-01-18T22:13:07.203Z,100.00
2023-01-18T22:15:35.611Z,100.00
2023-01-18T22:18:04.253Z,100.00
2023-01-18T22:20:32.671Z,100.00
2023-01-18T22:23:00.969Z,100.00
2023-01-18T22:25:29.304Z,100.00
2023-01-18T22:27:58.040Z,100.00
2023-01-18T22:30:26.619Z,100.00
2023-01-18T22:32:54.900Z,100.00
2023-01-18T22:35:23.211Z,100.00
2023-01-18T22:37:51.529Z,100.00
2023-01-18T22:40:19.851Z,100.00
2023-01-18T22:42:48.139Z,100.00
2023-01-18T22:45:16.420Z,100.00
2023-01-18T22:47:45.165Z,100.00
2023-01-18T22:50:13.459Z,100.00
2023-01-18T22:52:41.785Z,100.00
2023-01-18T22:55:10.371Z,100.00
2023-01-18T22:57:38.742Z,100.00
2023-01-18T23:00:09.848Z,100.00
2023-01-18T23:02:38.331Z,100.00
2023-01-18T23:05:07.506Z,100.00
2023-01-18T23:07:35.799Z,100.00
2023-01-18T23:10:04.532Z,100.00
2023-01-18T23:12:32.924Z,100.00
2023-01-18T23:15:19.791Z,100.00
2023-01-18T23:17:48.115Z,100.00
2023-01-18T23:20:16.517Z,100.00
2023-01-18T23:22:45.766Z,100.00
2023-01-18T23:25:14.097Z,100.00
2023-01-18T23:27:42.476Z,100.00
2023-01-18T23:30:11.658Z,100.00
2023-01-18T23:32:40.192Z,100.00
2023-01-18T23:35:08.806Z,100.00
2023-01-18T23:37:37.098Z,100.00
2023-01-18T23:40:25.140Z,100.00
2023-01-18T23:43:12.584Z,100.00
2023-01-18T23:46:01.392Z,100.00
2023-01-18T23:48:48.370Z,100.00
2023-01-18T23:51:35.125Z,100.00
2023-01-18T23:54:18.763Z,100.00
2023-01-18T23:56:47.788Z,100.00
2023-01-18T23:59:16.139Z,100.00
